sensor_id;sensor_type;location;lat;lon;timestamp;P1;durP1;ratioP1;P2;durP2;ratioP2
2474;SDS011;1248;48.694;10.160;2023-08-31T00:00:11;3.23;;;2.37;;
2474;SDS011;1248;48.694;10.160;2023-08-31T00:02:40;3.60;;;2.43;;
2474;SDS011;1248;48.694;10.160;2023-08-31T00:05:07;4.33;;;2.90;;
2474;SDS011;1248;48.694;10.160;2023-08-31T00:07:34;3.73;;;2.20;;
2474;SDS011;1248;48.694;10.160;2023-08-31T00:10:01;2.60;;;2.40;;
2474;SDS011;1248;48.694;10.160;2023-08-31T00:12:34;3.63;;;2.53;;
2474;SDS011;1248;48.694;10.160;2023-08-31T00:15:03;2.67;;;2.37;;
2474;SDS011;1248;48.694;10.160;2023-08-31T00:17:31;3.40;;;3.00;;
2474;SDS011;1248;48.694;10.160;2023-08-31T00:19:59;2.80;;;2.20;;
2474;SDS011;1248;48.694;10.160;2023-08-31T00:22:26;2.07;;;1.87;;
2474;SDS011;1248;48.694;10.160;2023-08-31T00:24:54;3.53;;;2.37;;
2474;SDS011;1248;48.694;10.160;2023-08-31T00:27:21;3.00;;;2.70;;
2474;SDS011;1248;48.694;10.160;2023-08-31T00:29:48;2.20;;;1.87;;
2474;SDS011;1248;48.694;10.160;2023-08-31T00:32:16;2.90;;;2.10;;
2474;SDS011;1248;48.694;10.160;2023-08-31T00:34:43;2.50;;;2.27;;
2474;SDS011;1248;48.694;10.160;2023-08-31T00:37:12;3.93;;;1.97;;
2474;SDS011;1248;48.694;10.160;2023-08-31T00:39:39;2.60;;;2.07;;
2474;SDS011;1248;48.694;10.160;2023-08-31T00:42:06;4.17;;;2.47;;
2474;SDS011;1248;48.694;10.160;2023-08-31T00:44:33;4.97;;;2.63;;
2474;SDS011;1248;48.694;10.160;2023-08-31T00:47:00;4.10;;;2.90;;
2474;SDS011;1248;48.694;10.160;2023-08-31T00:49:29;3.30;;;2.43;;
2474;SDS011;1248;48.694;10.160;2023-08-31T00:51:56;3.73;;;2.50;;
2474;SDS011;1248;48.694;10.160;2023-08-31T00:54:24;3.33;;;2.60;;
2474;SDS011;1248;48.694;10.160;2023-08-31T00:56:52;3.53;;;2.73;;
2474;SDS011;1248;48.694;10.160;2023-08-31T00:59:20;3.20;;;2.23;;
2474;SDS011;1248;48.694;10.160;2023-08-31T01:01:49;2.97;;;2.70;;
2474;SDS011;1248;48.694;10.160;2023-08-31T01:04:21;3.50;;;2.70;;
2474;SDS011;1248;48.694;10.160;2023-08-31T01:06:56;5.27;;;3.17;;
2474;SDS011;1248;48.694;10.160;2023-08-31T01:09:33;2.83;;;2.53;;
2474;SDS011;1248;48.694;10.160;2023-08-31T01:12:04;6.20;;;3.67;;
2474;SDS011;1248;48.694;10.160;2023-08-31T01:14:32;2.93;;;2.63;;
2474;SDS011;1248;48.694;10.160;2023-08-31T01:17:01;4.17;;;3.43;;
2474;SDS011;1248;48.694;10.160;2023-08-31T01:19:40;5.50;;;2.90;;
2474;SDS011;1248;48.694;10.160;2023-08-31T01:22:14;3.40;;;3.10;;
2474;SDS011;1248;48.694;10.160;2023-08-31T01:24:46;6.10;;;3.00;;
2474;SDS011;1248;48.694;10.160;2023-08-31T01:27:14;5.10;;;3.27;;
2474;SDS011;1248;48.694;10.160;2023-08-31T01:29:41;5.10;;;3.63;;
2474;SDS011;1248;48.694;10.160;2023-08-31T01:32:08;5.70;;;3.33;;
2474;SDS011;1248;48.694;10.160;2023-08-31T01:34:35;7.17;;;4.80;;
2474;SDS011;1248;48.694;10.160;2023-08-31T01:37:03;4.60;;;2.90;;
2474;SDS011;1248;48.694;10.160;2023-08-31T01:39:35;4.10;;;3.00;;
2474;SDS011;1248;48.694;10.160;2023-08-31T01:42:08;6.53;;;3.60;;
2474;SDS011;1248;48.694;10.160;2023-08-31T01:44:39;4.23;;;3.20;;
2474;SDS011;1248;48.694;10.160;2023-08-31T01:47:06;5.47;;;3.40;;
2474;SDS011;1248;48.694;10.160;2023-08-31T01:49:37;4.47;;;3.40;;
2474;SDS011;1248;48.694;10.160;2023-08-31T01:52:04;9.07;;;3.97;;
2474;SDS011;1248;48.694;10.160;2023-08-31T01:54:32;3.53;;;3.03;;
2474;SDS011;1248;48.694;10.160;2023-08-31T01:56:59;5.57;;;3.57;;
2474;SDS011;1248;48.694;10.160;2023-08-31T01:59:29;4.47;;;3.30;;
2474;SDS011;1248;48.694;10.160;2023-08-31T02:01:56;3.80;;;3.03;;
2474;SDS011;1248;48.694;10.160;2023-08-31T02:04:23;5.93;;;3.90;;
2474;SDS011;1248;48.694;10.160;2023-08-31T02:06:50;5.30;;;3.40;;
2474;SDS011;1248;48.694;10.160;2023-08-31T02:09:17;11.23;;;3.90;;
2474;SDS011;1248;48.694;10.160;2023-08-31T02:11:44;9.03;;;3.70;;
2474;SDS011;1248;48.694;10.160;2023-08-31T02:14:12;5.47;;;3.73;;
2474;SDS011;1248;48.694;10.160;2023-08-31T02:16:40;3.93;;;3.53;;
2474;SDS011;1248;48.694;10.160;2023-08-31T02:19:07;5.07;;;3.60;;
2474;SDS011;1248;48.694;10.160;2023-08-31T02:21:34;4.80;;;4.30;;
2474;SDS011;1248;48.694;10.160;2023-08-31T02:24:01;5.87;;;3.43;;
2474;SDS011;1248;48.694;10.160;2023-08-31T02:26:28;5.43;;;4.10;;
2474;SDS011;1248;48.694;10.160;2023-08-31T02:28:56;7.00;;;4.27;;
2474;SDS011;1248;48.694;10.160;2023-08-31T02:31:23;4.70;;;3.73;;
2474;SDS011;1248;48.694;10.160;2023-08-31T02:33:51;6.50;;;4.63;;
2474;SDS011;1248;48.694;10.160;2023-08-31T02:36:19;6.23;;;4.30;;
2474;SDS011;1248;48.694;10.160;2023-08-31T02:38:47;9.60;;;3.90;;
2474;SDS011;1248;48.694;10.160;2023-08-31T02:41:15;5.00;;;3.70;;
2474;SDS011;1248;48.694;10.160;2023-08-31T02:43:42;4.60;;;3.97;;
2474;SDS011;1248;48.694;10.160;2023-08-31T02:46:09;7.40;;;4.90;;
2474;SDS011;1248;48.694;10.160;2023-08-31T02:48:37;5.63;;;4.83;;
2474;SDS011;1248;48.694;10.160;2023-08-31T02:51:05;8.37;;;4.70;;
2474;SDS011;1248;48.694;10.160;2023-08-31T02:53:33;5.90;;;4.10;;
2474;SDS011;1248;48.694;10.160;2023-08-31T02:56:01;8.50;;;4.50;;
2474;SDS011;1248;48.694;10.160;2023-08-31T02:58:28;5.13;;;4.23;;
2474;SDS011;1248;48.694;10.160;2023-08-31T03:00:55;5.03;;;4.53;;
2474;SDS011;1248;48.694;10.160;2023-08-31T03:03:36;4.90;;;4.03;;
2474;SDS011;1248;48.694;10.160;2023-08-31T03:06:06;8.50;;;4.80;;
2474;SDS011;1248;48.694;10.160;2023-08-31T03:08:34;8.03;;;4.80;;
2474;SDS011;1248;48.694;10.160;2023-08-31T03:11:01;4.47;;;3.97;;
2474;SDS011;1248;48.694;10.160;2023-08-31T03:13:28;9.13;;;4.50;;
2474;SDS011;1248;48.694;10.160;2023-08-31T03:15:55;8.43;;;5.47;;
2474;SDS011;1248;48.694;10.160;2023-08-31T03:18:23;6.17;;;4.80;;
2474;SDS011;1248;48.694;10.160;2023-08-31T03:20:50;7.70;;;4.80;;
2474;SDS011;1248;48.694;10.160;2023-08-31T03:23:18;8.00;;;5.43;;
2474;SDS011;1248;48.694;10.160;2023-08-31T03:25:45;8.33;;;5.50;;
2474;SDS011;1248;48.694;10.160;2023-08-31T03:28:13;6.10;;;5.10;;
2474;SDS011;1248;48.694;10.160;2023-08-31T03:30:40;8.40;;;5.20;;
2474;SDS011;1248;48.694;10.160;2023-08-31T03:33:07;7.93;;;4.80;;
2474;SDS011;1248;48.694;10.160;2023-08-31T03:35:34;8.67;;;6.43;;
2474;SDS011;1248;48.694;10.160;2023-08-31T03:38:01;6.33;;;4.83;;
2474;SDS011;1248;48.694;10.160;2023-08-31T03:40:30;8.40;;;5.37;;
2474;SDS011;1248;48.694;10.160;2023-08-31T03:42:57;7.80;;;4.80;;
2474;SDS011;1248;48.694;10.160;2023-08-31T03:45:25;10.50;;;5.17;;
2474;SDS011;1248;48.694;10.160;2023-08-31T03:47:52;7.03;;;5.33;;
2474;SDS011;1248;48.694;10.160;2023-08-31T03:50:19;17.60;;;5.80;;
2474;SDS011;1248;48.694;10.160;2023-08-31T03:52:46;5.00;;;4.50;;
2474;SDS011;1248;48.694;10.160;2023-08-31T03:55:13;6.67;;;4.90;;
2474;SDS011;1248;48.694;10.160;2023-08-31T03:57:42;6.70;;;5.10;;
2474;SDS011;1248;48.694;10.160;2023-08-31T04:00:10;6.17;;;4.53;;
2474;SDS011;1248;48.694;10.160;2023-08-31T04:02:38;6.53;;;5.00;;
2474;SDS011;1248;48.694;10.160;2023-08-31T04:05:05;5.57;;;4.70;;
2474;SDS011;1248;48.694;10.160;2023-08-31T04:07:34;7.93;;;5.30;;
2474;SDS011;1248;48.694;10.160;2023-08-31T04:10:02;8.57;;;5.53;;
2474;SDS011;1248;48.694;10.160;2023-08-31T04:12:29;8.90;;;5.37;;
2474;SDS011;1248;48.694;10.160;2023-08-31T04:14:57;6.17;;;4.20;;
2474;SDS011;1248;48.694;10.160;2023-08-31T04:17:24;7.70;;;4.73;;
2474;SDS011;1248;48.694;10.160;2023-08-31T04:19:51;7.60;;;5.17;;
2474;SDS011;1248;48.694;10.160;2023-08-31T04:22:18;7.60;;;5.13;;
2474;SDS011;1248;48.694;10.160;2023-08-31T04:24:46;8.73;;;6.27;;
2474;SDS011;1248;48.694;10.160;2023-08-31T04:27:13;11.63;;;5.17;;
2474;SDS011;1248;48.694;10.160;2023-08-31T04:29:40;9.80;;;5.77;;
2474;SDS011;1248;48.694;10.160;2023-08-31T04:32:08;13.67;;;6.00;;
2474;SDS011;1248;48.694;10.160;2023-08-31T04:34:35;6.90;;;5.60;;
2474;SDS011;1248;48.694;10.160;2023-08-31T04:37:02;6.97;;;4.77;;
2474;SDS011;1248;48.694;10.160;2023-08-31T04:39:30;6.30;;;5.03;;
2474;SDS011;1248;48.694;10.160;2023-08-31T04:41:57;5.97;;;5.27;;
2474;SDS011;1248;48.694;10.160;2023-08-31T04:44:24;9.00;;;5.37;;
2474;SDS011;1248;48.694;10.160;2023-08-31T04:46:51;6.50;;;5.07;;
2474;SDS011;1248;48.694;10.160;2023-08-31T04:49:19;8.03;;;5.60;;
2474;SDS011;1248;48.694;10.160;2023-08-31T04:51:46;6.30;;;5.07;;
2474;SDS011;1248;48.694;10.160;2023-08-31T04:54:13;7.30;;;5.03;;
2474;SDS011;1248;48.694;10.160;2023-08-31T04:56:40;7.00;;;5.60;;
2474;SDS011;1248;48.694;10.160;2023-08-31T04:59:07;11.33;;;5.60;;
2474;SDS011;1248;48.694;10.160;2023-08-31T05:01:35;8.50;;;5.33;;
2474;SDS011;1248;48.694;10.160;2023-08-31T05:04:02;9.30;;;6.23;;
2474;SDS011;1248;48.694;10.160;2023-08-31T05:06:30;8.03;;;5.30;;
2474;SDS011;1248;48.694;10.160;2023-08-31T05:08:57;5.60;;;4.67;;
2474;SDS011;1248;48.694;10.160;2023-08-31T05:11:24;6.90;;;5.27;;
2474;SDS011;1248;48.694;10.160;2023-08-31T05:13:51;6.40;;;5.30;;
2474;SDS011;1248;48.694;10.160;2023-08-31T05:16:18;9.07;;;5.70;;
2474;SDS011;1248;48.694;10.160;2023-08-31T05:18:45;9.83;;;5.47;;
2474;SDS011;1248;48.694;10.160;2023-08-31T05:21:13;8.10;;;6.00;;
2474;SDS011;1248;48.694;10.160;2023-08-31T05:23:41;9.40;;;5.83;;
2474;SDS011;1248;48.694;10.160;2023-08-31T05:26:08;8.30;;;5.60;;
2474;SDS011;1248;48.694;10.160;2023-08-31T05:28:36;7.03;;;5.73;;
2474;SDS011;1248;48.694;10.160;2023-08-31T05:31:03;8.97;;;6.87;;
2474;SDS011;1248;48.694;10.160;2023-08-31T05:33:30;10.10;;;5.60;;
2474;SDS011;1248;48.694;10.160;2023-08-31T05:36:00;10.63;;;7.30;;
2474;SDS011;1248;48.694;10.160;2023-08-31T05:38:27;13.13;;;7.37;;
2474;SDS011;1248;48.694;10.160;2023-08-31T05:40:57;8.40;;;6.60;;
2474;SDS011;1248;48.694;10.160;2023-08-31T05:43:30;9.43;;;6.53;;
2474;SDS011;1248;48.694;10.160;2023-08-31T05:45:57;9.00;;;6.53;;
2474;SDS011;1248;48.694;10.160;2023-08-31T05:48:24;7.70;;;6.23;;
2474;SDS011;1248;48.694;10.160;2023-08-31T05:50:51;15.80;;;7.73;;
2474;SDS011;1248;48.694;10.160;2023-08-31T05:53:18;14.57;;;6.93;;
2474;SDS011;1248;48.694;10.160;2023-08-31T05:55:45;14.00;;;7.80;;
2474;SDS011;1248;48.694;10.160;2023-08-31T05:58:14;11.07;;;7.63;;
2474;SDS011;1248;48.694;10.160;2023-08-31T06:00:41;11.97;;;8.03;;
2474;SDS011;1248;48.694;10.160;2023-08-31T06:03:08;11.33;;;6.50;;
2474;SDS011;1248;48.694;10.160;2023-08-31T06:05:36;8.13;;;6.93;;
2474;SDS011;1248;48.694;10.160;2023-08-31T06:08:04;9.17;;;7.30;;
2474;SDS011;1248;48.694;10.160;2023-08-31T06:10:31;11.50;;;7.20;;
2474;SDS011;1248;48.694;10.160;2023-08-31T06:12:58;8.80;;;6.90;;
2474;SDS011;1248;48.694;10.160;2023-08-31T06:15:27;11.43;;;8.37;;
2474;SDS011;1248;48.694;10.160;2023-08-31T06:17:54;9.13;;;7.23;;
2474;SDS011;1248;48.694;10.160;2023-08-31T06:20:21;11.40;;;7.70;;
2474;SDS011;1248;48.694;10.160;2023-08-31T06:22:49;8.97;;;7.20;;
2474;SDS011;1248;48.694;10.160;2023-08-31T06:25:16;11.50;;;7.17;;
2474;SDS011;1248;48.694;10.160;2023-08-31T06:27:44;11.17;;;7.97;;
2474;SDS011;1248;48.694;10.160;2023-08-31T06:30:11;10.67;;;7.20;;
2474;SDS011;1248;48.694;10.160;2023-08-31T06:32:43;13.13;;;8.40;;
2474;SDS011;1248;48.694;10.160;2023-08-31T06:35:10;11.47;;;7.40;;
2474;SDS011;1248;48.694;10.160;2023-08-31T06:37:38;11.27;;;8.47;;
2474;SDS011;1248;48.694;10.160;2023-08-31T06:40:06;15.10;;;7.87;;
2474;SDS011;1248;48.694;10.160;2023-08-31T06:42:34;10.93;;;7.43;;
2474;SDS011;1248;48.694;10.160;2023-08-31T06:45:03;10.77;;;7.77;;
2474;SDS011;1248;48.694;10.160;2023-08-31T06:47:30;10.30;;;7.60;;
2474;SDS011;1248;48.694;10.160;2023-08-31T06:50:00;10.60;;;7.33;;
2474;SDS011;1248;48.694;10.160;2023-08-31T06:52:27;9.70;;;5.80;;
2474;SDS011;1248;48.694;10.160;2023-08-31T06:54:54;9.57;;;5.70;;
2474;SDS011;1248;48.694;10.160;2023-08-31T06:57:22;7.60;;;6.10;;
2474;SDS011;1248;48.694;10.160;2023-08-31T06:59:49;10.33;;;6.77;;
2474;SDS011;1248;48.694;10.160;2023-08-31T07:02:16;7.93;;;6.80;;
2474;SDS011;1248;48.694;10.160;2023-08-31T07:04:44;11.13;;;6.17;;
2474;SDS011;1248;48.694;10.160;2023-08-31T07:07:13;9.13;;;6.37;;
2474;SDS011;1248;48.694;10.160;2023-08-31T07:09:41;8.00;;;6.20;;
2474;SDS011;1248;48.694;10.160;2023-08-31T07:12:08;11.07;;;6.00;;
2474;SDS011;1248;48.694;10.160;2023-08-31T07:14:35;7.23;;;5.10;;
2474;SDS011;1248;48.694;10.160;2023-08-31T07:17:02;11.73;;;5.70;;
2474;SDS011;1248;48.694;10.160;2023-08-31T07:19:29;7.60;;;5.57;;
2474;SDS011;1248;48.694;10.160;2023-08-31T07:21:57;7.73;;;4.80;;
2474;SDS011;1248;48.694;10.160;2023-08-31T07:24:26;6.07;;;3.93;;
2474;SDS011;1248;48.694;10.160;2023-08-31T07:26:53;5.20;;;4.10;;
2474;SDS011;1248;48.694;10.160;2023-08-31T07:29:20;4.97;;;4.03;;
2474;SDS011;1248;48.694;10.160;2023-08-31T07:31:47;7.67;;;3.90;;
2474;SDS011;1248;48.694;10.160;2023-08-31T07:34:14;8.43;;;3.60;;
2474;SDS011;1248;48.694;10.160;2023-08-31T07:36:42;6.03;;;3.50;;
2474;SDS011;1248;48.694;10.160;2023-08-31T07:39:09;13.27;;;5.70;;
2474;SDS011;1248;48.694;10.160;2023-08-31T07:41:37;11.10;;;3.43;;
2474;SDS011;1248;48.694;10.160;2023-08-31T07:44:05;5.50;;;3.77;;
2474;SDS011;1248;48.694;10.160;2023-08-31T07:46:32;4.70;;;3.27;;
2474;SDS011;1248;48.694;10.160;2023-08-31T07:48:59;3.93;;;2.50;;
2474;SDS011;1248;48.694;10.160;2023-08-31T07:51:27;7.37;;;3.20;;
2474;SDS011;1248;48.694;10.160;2023-08-31T07:53:54;4.83;;;3.10;;
2474;SDS011;1248;48.694;10.160;2023-08-31T07:56:21;6.57;;;3.20;;
2474;SDS011;1248;48.694;10.160;2023-08-31T07:58:50;5.00;;;2.90;;
2474;SDS011;1248;48.694;10.160;2023-08-31T08:01:17;4.50;;;2.53;;
2474;SDS011;1248;48.694;10.160;2023-08-31T08:03:44;5.20;;;2.40;;
2474;SDS011;1248;48.694;10.160;2023-08-31T08:06:12;4.23;;;2.87;;
2474;SDS011;1248;48.694;10.160;2023-08-31T08:08:39;4.20;;;2.40;;
2474;SDS011;1248;48.694;10.160;2023-08-31T08:11:06;7.60;;;2.40;;
2474;SDS011;1248;48.694;10.160;2023-08-31T08:13:33;3.80;;;2.50;;
2474;SDS011;1248;48.694;10.160;2023-08-31T08:16:02;3.40;;;2.00;;
2474;SDS011;1248;48.694;10.160;2023-08-31T08:18:29;3.70;;;2.00;;
2474;SDS011;1248;48.694;10.160;2023-08-31T08:20:56;5.10;;;2.20;;
2474;SDS011;1248;48.694;10.160;2023-08-31T08:23:23;5.27;;;2.30;;
2474;SDS011;1248;48.694;10.160;2023-08-31T08:25:50;2.93;;;2.13;;
2474;SDS011;1248;48.694;10.160;2023-08-31T08:28:17;5.43;;;2.93;;
2474;SDS011;1248;48.694;10.160;2023-08-31T08:30:44;5.70;;;2.90;;
2474;SDS011;1248;48.694;10.160;2023-08-31T08:33:13;7.90;;;2.73;;
2474;SDS011;1248;48.694;10.160;2023-08-31T08:35:40;3.20;;;1.83;;
2474;SDS011;1248;48.694;10.160;2023-08-31T08:38:07;6.37;;;2.50;;
2474;SDS011;1248;48.694;10.160;2023-08-31T08:40:34;6.60;;;2.67;;
2474;SDS011;1248;48.694;10.160;2023-08-31T08:43:01;4.80;;;2.67;;
2474;SDS011;1248;48.694;10.160;2023-08-31T08:45:35;10.33;;;2.70;;
2474;SDS011;1248;48.694;10.160;2023-08-31T08:48:05;3.83;;;2.70;;
2474;SDS011;1248;48.694;10.160;2023-08-31T08:50:34;4.60;;;3.07;;
2474;SDS011;1248;48.694;10.160;2023-08-31T08:53:03;5.03;;;2.73;;
2474;SDS011;1248;48.694;10.160;2023-08-31T08:55:30;9.77;;;3.10;;
2474;SDS011;1248;48.694;10.160;2023-08-31T08:57:58;3.83;;;2.40;;
2474;SDS011;1248;48.694;10.160;2023-08-31T09:00:25;4.93;;;2.93;;
2474;SDS011;1248;48.694;10.160;2023-08-31T09:02:53;7.03;;;2.73;;
2474;SDS011;1248;48.694;10.160;2023-08-31T09:05:20;3.90;;;2.20;;
2474;SDS011;1248;48.694;10.160;2023-08-31T09:08:05;8.83;;;2.57;;
2474;SDS011;1248;48.694;10.160;2023-08-31T09:10:35;5.87;;;2.60;;
2474;SDS011;1248;48.694;10.160;2023-08-31T09:13:07;4.10;;;2.80;;
2474;SDS011;1248;48.694;10.160;2023-08-31T09:15:41;4.13;;;2.40;;
2474;SDS011;1248;48.694;10.160;2023-08-31T09:18:16;3.80;;;2.00;;
2474;SDS011;1248;48.694;10.160;2023-08-31T09:20:46;7.00;;;2.30;;
2474;SDS011;1248;48.694;10.160;2023-08-31T09:23:15;5.53;;;3.33;;
2474;SDS011;1248;48.694;10.160;2023-08-31T09:25:43;7.07;;;2.73;;
2474;SDS011;1248;48.694;10.160;2023-08-31T09:28:11;2.80;;;2.20;;
2474;SDS011;1248;48.694;10.160;2023-08-31T09:30:39;4.07;;;1.77;;
2474;SDS011;1248;48.694;10.160;2023-08-31T09:33:07;4.33;;;1.80;;
2474;SDS011;1248;48.694;10.160;2023-08-31T09:35:38;2.90;;;2.27;;
2474;SDS011;1248;48.694;10.160;2023-08-31T09:38:07;6.17;;;2.30;;
2474;SDS011;1248;48.694;10.160;2023-08-31T09:40:37;5.80;;;2.00;;
2474;SDS011;1248;48.694;10.160;2023-08-31T09:43:04;5.50;;;2.33;;
2474;SDS011;1248;48.694;10.160;2023-08-31T09:45:32;4.80;;;2.07;;
2474;SDS011;1248;48.694;10.160;2023-08-31T09:48:00;2.90;;;1.70;;
2474;SDS011;1248;48.694;10.160;2023-08-31T09:50:29;6.00;;;1.90;;
2474;SDS011;1248;48.694;10.160;2023-08-31T09:52:59;3.13;;;1.60;;
2474;SDS011;1248;48.694;10.160;2023-08-31T09:55:28;4.53;;;2.40;;
2474;SDS011;1248;48.694;10.160;2023-08-31T09:57:57;3.47;;;1.60;;
2474;SDS011;1248;48.694;10.160;2023-08-31T10:00:25;3.87;;;2.37;;
2474;SDS011;1248;48.694;10.160;2023-08-31T10:02:53;3.83;;;2.27;;
2474;SDS011;1248;48.694;10.160;2023-08-31T10:05:20;4.83;;;2.30;;
2474;SDS011;1248;48.694;10.160;2023-08-31T10:07:48;5.10;;;1.93;;
2474;SDS011;1248;48.694;10.160;2023-08-31T10:10:15;3.60;;;1.90;;
2474;SDS011;1248;48.694;10.160;2023-08-31T10:12:43;5.93;;;2.10;;
2474;SDS011;1248;48.694;10.160;2023-08-31T10:15:12;5.53;;;2.43;;
2474;SDS011;1248;48.694;10.160;2023-08-31T10:17:39;5.70;;;2.27;;
2474;SDS011;1248;48.694;10.160;2023-08-31T10:20:07;4.13;;;2.00;;
2474;SDS011;1248;48.694;10.160;2023-08-31T10:22:36;2.90;;;2.07;;
2474;SDS011;1248;48.694;10.160;2023-08-31T10:25:03;8.90;;;2.60;;
2474;SDS011;1248;48.694;10.160;2023-08-31T10:27:36;5.30;;;2.30;;
2474;SDS011;1248;48.694;10.160;2023-08-31T10:30:16;4.20;;;2.30;;
2474;SDS011;1248;48.694;10.160;2023-08-31T10:35:48;2.30;;;1.80;;
2474;SDS011;1248;48.694;10.160;2023-08-31T10:38:17;3.80;;;1.70;;
2474;SDS011;1248;48.694;10.160;2023-08-31T10:41:00;4.90;;;1.90;;
2474;SDS011;1248;48.694;10.160;2023-08-31T10:43:42;3.13;;;2.10;;
2474;SDS011;1248;48.694;10.160;2023-08-31T10:49:00;4.60;;;1.70;;
2474;SDS011;1248;48.694;10.160;2023-08-31T10:51:30;4.73;;;2.53;;
2474;SDS011;1248;48.694;10.160;2023-08-31T10:54:04;4.00;;;1.80;;
2474;SDS011;1248;48.694;10.160;2023-08-31T10:56:32;4.33;;;1.77;;
2474;SDS011;1248;48.694;10.160;2023-08-31T10:59:00;3.05;;;1.95;;
2474;SDS011;1248;48.694;10.160;2023-08-31T11:04:22;5.60;;;2.37;;
2474;SDS011;1248;48.694;10.160;2023-08-31T11:09:38;8.97;;;3.13;;
2474;SDS011;1248;48.694;10.160;2023-08-31T11:12:06;2.03;;;1.80;;
2474;SDS011;1248;48.694;10.160;2023-08-31T11:14:33;2.43;;;1.90;;
2474;SDS011;1248;48.694;10.160;2023-08-31T11:17:02;2.73;;;1.87;;
2474;SDS011;1248;48.694;10.160;2023-08-31T11:19:30;3.70;;;2.10;;
2474;SDS011;1248;48.694;10.160;2023-08-31T11:21:58;3.87;;;2.03;;
2474;SDS011;1248;48.694;10.160;2023-08-31T11:24:26;3.10;;;1.80;;
2474;SDS011;1248;48.694;10.160;2023-08-31T11:26:53;3.90;;;1.90;;
2474;SDS011;1248;48.694;10.160;2023-08-31T11:29:21;2.97;;;2.17;;
2474;SDS011;1248;48.694;10.160;2023-08-31T11:31:48;5.53;;;2.33;;
2474;SDS011;1248;48.694;10.160;2023-08-31T11:34:17;9.93;;;2.70;;
2474;SDS011;1248;48.694;10.160;2023-08-31T11:36:45;5.23;;;2.20;;
2474;SDS011;1248;48.694;10.160;2023-08-31T11:39:13;2.50;;;1.80;;
2474;SDS011;1248;48.694;10.160;2023-08-31T11:41:40;6.47;;;1.87;;
2474;SDS011;1248;48.694;10.160;2023-08-31T11:44:09;5.33;;;2.30;;
2474;SDS011;1248;48.694;10.160;2023-08-31T11:46:36;5.57;;;2.43;;
2474;SDS011;1248;48.694;10.160;2023-08-31T11:49:04;4.47;;;2.27;;
2474;SDS011;1248;48.694;10.160;2023-08-31T11:51:32;10.40;;;3.07;;
2474;SDS011;1248;48.694;10.160;2023-08-31T11:54:00;3.67;;;2.40;;
2474;SDS011;1248;48.694;10.160;2023-08-31T11:56:38;4.40;;;2.60;;
2474;SDS011;1248;48.694;10.160;2023-08-31T11:59:09;4.83;;;2.07;;
2474;SDS011;1248;48.694;10.160;2023-08-31T12:01:38;4.53;;;2.27;;
2474;SDS011;1248;48.694;10.160;2023-08-31T12:04:09;3.20;;;2.10;;
2474;SDS011;1248;48.694;10.160;2023-08-31T12:06:39;7.30;;;2.50;;
2474;SDS011;1248;48.694;10.160;2023-08-31T12:09:07;6.33;;;2.00;;
2474;SDS011;1248;48.694;10.160;2023-08-31T12:11:34;9.93;;;2.83;;
2474;SDS011;1248;48.694;10.160;2023-08-31T12:14:02;3.47;;;2.00;;
2474;SDS011;1248;48.694;10.160;2023-08-31T12:16:33;3.83;;;2.20;;
2474;SDS011;1248;48.694;10.160;2023-08-31T12:19:02;5.70;;;1.90;;
2474;SDS011;1248;48.694;10.160;2023-08-31T12:21:30;2.37;;;1.83;;
2474;SDS011;1248;48.694;10.160;2023-08-31T12:23:59;4.40;;;2.40;;
2474;SDS011;1248;48.694;10.160;2023-08-31T12:26:26;5.50;;;2.50;;
2474;SDS011;1248;48.694;10.160;2023-08-31T12:28:54;3.90;;;2.07;;
2474;SDS011;1248;48.694;10.160;2023-08-31T12:31:22;5.60;;;2.10;;
2474;SDS011;1248;48.694;10.160;2023-08-31T12:33:49;3.70;;;1.97;;
2474;SDS011;1248;48.694;10.160;2023-08-31T12:36:16;4.30;;;2.37;;
2474;SDS011;1248;48.694;10.160;2023-08-31T12:38:43;3.10;;;2.17;;
2474;SDS011;1248;48.694;10.160;2023-08-31T12:41:12;4.17;;;2.23;;
2474;SDS011;1248;48.694;10.160;2023-08-31T12:43:39;5.23;;;2.10;;
2474;SDS011;1248;48.694;10.160;2023-08-31T12:46:06;3.50;;;2.10;;
2474;SDS011;1248;48.694;10.160;2023-08-31T12:48:34;7.33;;;2.60;;
2474;SDS011;1248;48.694;10.160;2023-08-31T12:51:02;4.27;;;2.17;;
2474;SDS011;1248;48.694;10.160;2023-08-31T12:53:29;3.03;;;2.00;;
2474;SDS011;1248;48.694;10.160;2023-08-31T12:55:56;4.73;;;1.80;;
2474;SDS011;1248;48.694;10.160;2023-08-31T12:58:25;2.57;;;1.90;;
2474;SDS011;1248;48.694;10.160;2023-08-31T13:00:52;4.03;;;2.27;;
2474;SDS011;1248;48.694;10.160;2023-08-31T13:03:19;4.07;;;2.53;;
2474;SDS011;1248;48.694;10.160;2023-08-31T13:05:46;6.17;;;2.53;;
2474;SDS011;1248;48.694;10.160;2023-08-31T13:08:14;8.20;;;2.13;;
2474;SDS011;1248;48.694;10.160;2023-08-31T13:10:41;5.70;;;1.80;;
2474;SDS011;1248;48.694;10.160;2023-08-31T13:13:09;4.33;;;2.40;;
2474;SDS011;1248;48.694;10.160;2023-08-31T13:15:37;6.20;;;2.13;;
2474;SDS011;1248;48.694;10.160;2023-08-31T13:18:04;5.50;;;2.37;;
2474;SDS011;1248;48.694;10.160;2023-08-31T13:20:32;9.10;;;2.73;;
2474;SDS011;1248;48.694;10.160;2023-08-31T13:22:59;5.40;;;1.97;;
2474;SDS011;1248;48.694;10.160;2023-08-31T13:25:26;3.77;;;1.60;;
2474;SDS011;1248;48.694;10.160;2023-08-31T13:27:53;6.70;;;2.57;;
2474;SDS011;1248;48.694;10.160;2023-08-31T13:30:22;1.80;;;1.50;;
2474;SDS011;1248;48.694;10.160;2023-08-31T13:32:51;6.67;;;2.90;;
2474;SDS011;1248;48.694;10.160;2023-08-31T13:35:18;5.77;;;2.50;;
2474;SDS011;1248;48.694;10.160;2023-08-31T13:37:45;3.43;;;2.20;;
2474;SDS011;1248;48.694;10.160;2023-08-31T13:40:12;5.30;;;2.30;;
2474;SDS011;1248;48.694;10.160;2023-08-31T13:42:48;6.90;;;2.20;;
2474;SDS011;1248;48.694;10.160;2023-08-31T13:45:16;6.80;;;2.00;;
2474;SDS011;1248;48.694;10.160;2023-08-31T13:47:43;5.37;;;2.20;;
2474;SDS011;1248;48.694;10.160;2023-08-31T13:50:14;3.97;;;1.40;;
2474;SDS011;1248;48.694;10.160;2023-08-31T13:52:41;4.27;;;2.13;;
2474;SDS011;1248;48.694;10.160;2023-08-31T13:55:08;3.23;;;1.97;;
2474;SDS011;1248;48.694;10.160;2023-08-31T13:57:36;4.60;;;1.70;;
2474;SDS011;1248;48.694;10.160;2023-08-31T14:00:03;4.23;;;2.33;;
2474;SDS011;1248;48.694;10.160;2023-08-31T14:02:34;6.13;;;2.40;;
2474;SDS011;1248;48.694;10.160;2023-08-31T14:05:02;4.97;;;2.20;;
2474;SDS011;1248;48.694;10.160;2023-08-31T14:07:31;5.13;;;2.20;;
2474;SDS011;1248;48.694;10.160;2023-08-31T14:09:58;4.07;;;2.20;;
2474;SDS011;1248;48.694;10.160;2023-08-31T14:12:25;3.30;;;2.00;;
2474;SDS011;1248;48.694;10.160;2023-08-31T14:14:52;4.70;;;2.03;;
2474;SDS011;1248;48.694;10.160;2023-08-31T14:17:20;3.10;;;1.83;;
2474;SDS011;1248;48.694;10.160;2023-08-31T14:19:47;3.70;;;2.13;;
2474;SDS011;1248;48.694;10.160;2023-08-31T14:22:14;7.60;;;2.13;;
2474;SDS011;1248;48.694;10.160;2023-08-31T14:24:43;5.33;;;2.00;;
2474;SDS011;1248;48.694;10.160;2023-08-31T14:27:10;5.90;;;2.40;;
2474;SDS011;1248;48.694;10.160;2023-08-31T14:29:37;2.70;;;1.80;;
2474;SDS011;1248;48.694;10.160;2023-08-31T14:32:04;3.10;;;1.87;;
2474;SDS011;1248;48.694;10.160;2023-08-31T14:34:31;3.90;;;2.40;;
2474;SDS011;1248;48.694;10.160;2023-08-31T14:36:58;4.43;;;2.10;;
2474;SDS011;1248;48.694;10.160;2023-08-31T14:39:26;5.70;;;2.60;;
2474;SDS011;1248;48.694;10.160;2023-08-31T14:41:56;3.40;;;1.90;;
2474;SDS011;1248;48.694;10.160;2023-08-31T14:44:23;3.87;;;2.07;;
2474;SDS011;1248;48.694;10.160;2023-08-31T14:46:51;4.33;;;2.13;;
2474;SDS011;1248;48.694;10.160;2023-08-31T14:49:22;2.00;;;1.67;;
2474;SDS011;1248;48.694;10.160;2023-08-31T14:51:51;6.53;;;1.90;;
2474;SDS011;1248;48.694;10.160;2023-08-31T14:54:18;3.47;;;2.20;;
2474;SDS011;1248;48.694;10.160;2023-08-31T14:56:45;3.83;;;2.20;;
2474;SDS011;1248;48.694;10.160;2023-08-31T14:59:13;3.37;;;1.80;;
2474;SDS011;1248;48.694;10.160;2023-08-31T15:01:40;4.73;;;1.73;;
2474;SDS011;1248;48.694;10.160;2023-08-31T15:04:07;3.83;;;1.80;;
2474;SDS011;1248;48.694;10.160;2023-08-31T15:06:34;3.00;;;1.67;;
2474;SDS011;1248;48.694;10.160;2023-08-31T15:09:01;5.90;;;2.30;;
2474;SDS011;1248;48.694;10.160;2023-08-31T15:11:29;2.47;;;1.90;;
2474;SDS011;1248;48.694;10.160;2023-08-31T15:13:56;4.53;;;1.90;;
2474;SDS011;1248;48.694;10.160;2023-08-31T15:16:24;3.90;;;1.93;;